sensor_id;sensor_type;location;lat;lon;timestamp;P1;durP1;ratioP1;P2;durP2;ratioP2
26951;SDS011;14507;52.418;13.398;2023-04-29T00:01:04;12.15;;;6.45;;
26951;SDS011;14507;52.418;13.398;2023-04-29T00:03:30;11.15;;;6.45;;
26951;SDS011;14507;52.418;13.398;2023-04-29T00:05:58;13.45;;;6.85;;
26951;SDS011;14507;52.418;13.398;2023-04-29T00:08:24;10.20;;;6.28;;
26951;SDS011;14507;52.418;13.398;2023-04-29T00:10:50;12.70;;;6.82;;
26951;SDS011;14507;52.418;13.398;2023-04-29T00:13:15;10.20;;;6.40;;
26951;SDS011;14507;52.418;13.398;2023-04-29T00:15:41;13.50;;;6.93;;
26951;SDS011;14507;52.418;13.398;2023-04-29T00:18:07;12.15;;;6.10;;
26951;SDS011;14507;52.418;13.398;2023-04-29T00:20:34;11.63;;;6.55;;
26951;SDS011;14507;52.418;13.398;2023-04-29T00:23:00;14.23;;;6.80;;
26951;SDS011;14507;52.418;13.398;2023-04-29T00:25:26;9.30;;;6.10;;
26951;SDS011;14507;52.418;13.398;2023-04-29T00:27:51;11.40;;;6.57;;
26951;SDS011;14507;52.418;13.398;2023-04-29T00:30:17;12.50;;;7.13;;
26951;SDS011;14507;52.418;13.398;2023-04-29T00:32:42;11.60;;;6.22;;
26951;SDS011;14507;52.418;13.398;2023-04-29T00:35:08;12.40;;;6.47;;
26951;SDS011;14507;52.418;13.398;2023-04-29T00:37:35;9.15;;;6.32;;
26951;SDS011;14507;52.418;13.398;2023-04-29T00:40:01;9.23;;;6.10;;
26951;SDS011;14507;52.418;13.398;2023-04-29T00:42:27;14.50;;;6.72;;
26951;SDS011;14507;52.418;13.398;2023-04-29T00:44:54;13.23;;;6.80;;
26951;SDS011;14507;52.418;13.398;2023-04-29T00:47:19;11.40;;;6.55;;
26951;SDS011;14507;52.418;13.398;2023-04-29T00:49:45;9.90;;;6.43;;
26951;SDS011;14507;52.418;13.398;2023-04-29T00:52:11;10.63;;;6.45;;
26951;SDS011;14507;52.418;13.398;2023-04-29T00:54:38;13.73;;;8.07;;
26951;SDS011;14507;52.418;13.398;2023-04-29T00:57:05;10.88;;;6.72;;
26951;SDS011;14507;52.418;13.398;2023-04-29T00:59:32;10.68;;;6.07;;
26951;SDS011;14507;52.418;13.398;2023-04-29T01:02:01;14.05;;;6.88;;
26951;SDS011;14507;52.418;13.398;2023-04-29T01:04:28;9.60;;;6.78;;
26951;SDS011;14507;52.418;13.398;2023-04-29T01:07:00;10.40;;;6.65;;
26951;SDS011;14507;52.418;13.398;2023-04-29T01:09:52;10.52;;;7.30;;
26951;SDS011;14507;52.418;13.398;2023-04-29T01:15:02;10.07;;;6.80;;
26951;SDS011;14507;52.418;13.398;2023-04-29T01:17:55;11.65;;;6.88;;
26951;SDS011;14507;52.418;13.398;2023-04-29T01:20:23;13.98;;;7.93;;
26951;SDS011;14507;52.418;13.398;2023-04-29T01:22:50;12.77;;;7.78;;
26951;SDS011;14507;52.418;13.398;2023-04-29T01:25:16;12.75;;;8.48;;
26951;SDS011;14507;52.418;13.398;2023-04-29T01:45:04;12.40;;;9.00;;
26951;SDS011;14507;52.418;13.398;2023-04-29T01:47:32;15.07;;;9.13;;
26951;SDS011;14507;52.418;13.398;2023-04-29T01:49:59;13.73;;;9.48;;
26951;SDS011;14507;52.418;13.398;2023-04-29T01:52:26;12.63;;;9.05;;
26951;SDS011;14507;52.418;13.398;2023-04-29T01:54:52;11.50;;;8.77;;
26951;SDS011;14507;52.418;13.398;2023-04-29T01:57:18;18.05;;;9.15;;
26951;SDS011;14507;52.418;13.398;2023-04-29T01:59:43;15.75;;;10.05;;
26951;SDS011;14507;52.418;13.398;2023-04-29T02:02:09;16.23;;;10.32;;
26951;SDS011;14507;52.418;13.398;2023-04-29T02:04:35;15.23;;;10.07;;
26951;SDS011;14507;52.418;13.398;2023-04-29T02:07:01;17.00;;;9.77;;
26951;SDS011;14507;52.418;13.398;2023-04-29T02:09:28;14.02;;;9.43;;
26951;SDS011;14507;52.418;13.398;2023-04-29T02:11:53;15.27;;;10.38;;
26951;SDS011;14507;52.418;13.398;2023-04-29T02:14:19;16.60;;;10.07;;
26951;SDS011;14507;52.418;13.398;2023-04-29T02:16:45;17.95;;;9.98;;
26951;SDS011;14507;52.418;13.398;2023-04-29T02:19:11;15.15;;;10.70;;
26951;SDS011;14507;52.418;13.398;2023-04-29T02:21:37;17.17;;;10.60;;
26951;SDS011;14507;52.418;13.398;2023-04-29T02:24:04;14.90;;;10.18;;
26951;SDS011;14507;52.418;13.398;2023-04-29T02:26:30;19.85;;;10.95;;
26951;SDS011;14507;52.418;13.398;2023-04-29T02:28:57;16.45;;;11.05;;
26951;SDS011;14507;52.418;13.398;2023-04-29T02:31:22;15.27;;;10.57;;
26951;SDS011;14507;52.418;13.398;2023-04-29T02:33:48;16.05;;;10.98;;
26951;SDS011;14507;52.418;13.398;2023-04-29T02:36:14;16.70;;;10.65;;
26951;SDS011;14507;52.418;13.398;2023-04-29T02:38:39;18.52;;;10.90;;
26951;SDS011;14507;52.418;13.398;2023-04-29T02:41:05;16.80;;;11.10;;
26951;SDS011;14507;52.418;13.398;2023-04-29T02:43:31;17.38;;;11.65;;
26951;SDS011;14507;52.418;13.398;2023-04-29T02:45:57;18.23;;;11.07;;
26951;SDS011;14507;52.418;13.398;2023-04-29T02:48:22;18.85;;;11.90;;
26951;SDS011;14507;52.418;13.398;2023-04-29T02:50:48;19.95;;;11.55;;
26951;SDS011;14507;52.418;13.398;2023-04-29T02:53:13;16.60;;;12.57;;
26951;SDS011;14507;52.418;13.398;2023-04-29T02:55:40;20.40;;;12.88;;
26951;SDS011;14507;52.418;13.398;2023-04-29T02:58:06;23.80;;;13.95;;
26951;SDS011;14507;52.418;13.398;2023-04-29T03:00:32;18.65;;;12.75;;
26951;SDS011;14507;52.418;13.398;2023-04-29T03:02:58;17.55;;;12.23;;
26951;SDS011;14507;52.418;13.398;2023-04-29T03:05:23;18.02;;;12.88;;
26951;SDS011;14507;52.418;13.398;2023-04-29T03:07:49;22.17;;;15.35;;
26951;SDS011;14507;52.418;13.398;2023-04-29T03:10:14;23.50;;;14.32;;
26951;SDS011;14507;52.418;13.398;2023-04-29T03:12:42;20.33;;;13.23;;
26951;SDS011;14507;52.418;13.398;2023-04-29T03:15:07;18.00;;;14.52;;
26951;SDS011;14507;52.418;13.398;2023-04-29T03:17:34;21.60;;;13.57;;
26951;SDS011;14507;52.418;13.398;2023-04-29T03:20:00;20.00;;;13.73;;
26951;SDS011;14507;52.418;13.398;2023-04-29T03:22:26;20.30;;;13.45;;
26951;SDS011;14507;52.418;13.398;2023-04-29T03:24:52;22.02;;;14.82;;
26951;SDS011;14507;52.418;13.398;2023-04-29T03:27:17;20.92;;;14.38;;
26951;SDS011;14507;52.418;13.398;2023-04-29T03:29:43;18.88;;;13.70;;
26951;SDS011;14507;52.418;13.398;2023-04-29T03:32:09;20.35;;;14.68;;
26951;SDS011;14507;52.418;13.398;2023-04-29T03:34:35;22.60;;;15.95;;
26951;SDS011;14507;52.418;13.398;2023-04-29T03:37:01;21.33;;;14.60;;
26951;SDS011;14507;52.418;13.398;2023-04-29T03:39:26;21.10;;;15.18;;
26951;SDS011;14507;52.418;13.398;2023-04-29T03:41:56;22.38;;;15.73;;
26951;SDS011;14507;52.418;13.398;2023-04-29T03:44:22;23.65;;;16.20;;
26951;SDS011;14507;52.418;13.398;2023-04-29T03:46:48;22.83;;;15.63;;
26951;SDS011;14507;52.418;13.398;2023-04-29T03:49:13;21.15;;;14.85;;
26951;SDS011;14507;52.418;13.398;2023-04-29T03:51:40;23.40;;;15.05;;
26951;SDS011;14507;52.418;13.398;2023-04-29T03:54:05;22.60;;;15.77;;
26951;SDS011;14507;52.418;13.398;2023-04-29T03:56:32;24.55;;;16.50;;
26951;SDS011;14507;52.418;13.398;2023-04-29T03:58:57;24.45;;;15.68;;
26951;SDS011;14507;52.418;13.398;2023-04-29T04:01:23;21.02;;;15.73;;
26951;SDS011;14507;52.418;13.398;2023-04-29T04:03:50;24.63;;;16.73;;
26951;SDS011;14507;52.418;13.398;2023-04-29T04:06:16;26.65;;;15.55;;
26951;SDS011;14507;52.418;13.398;2023-04-29T04:08:41;24.58;;;15.70;;
26951;SDS011;14507;52.418;13.398;2023-04-29T04:11:07;26.48;;;16.55;;
26951;SDS011;14507;52.418;13.398;2023-04-29T04:13:33;20.42;;;14.90;;
26951;SDS011;14507;52.418;13.398;2023-04-29T04:15:59;25.55;;;17.20;;
26951;SDS011;14507;52.418;13.398;2023-04-29T04:18:25;24.45;;;16.50;;
26951;SDS011;14507;52.418;13.398;2023-04-29T04:20:51;26.17;;;17.85;;
26951;SDS011;14507;52.418;13.398;2023-04-29T04:23:17;24.00;;;17.42;;
26951;SDS011;14507;52.418;13.398;2023-04-29T04:25:46;29.00;;;18.85;;
26951;SDS011;14507;52.418;13.398;2023-04-29T04:28:12;26.95;;;18.27;;
26951;SDS011;14507;52.418;13.398;2023-04-29T04:30:38;31.88;;;19.27;;
26951;SDS011;14507;52.418;13.398;2023-04-29T04:33:04;27.38;;;19.58;;
26951;SDS011;14507;52.418;13.398;2023-04-29T04:35:30;27.80;;;19.55;;
26951;SDS011;14507;52.418;13.398;2023-04-29T04:37:55;28.08;;;20.42;;
26951;SDS011;14507;52.418;13.398;2023-04-29T04:40:21;28.05;;;19.50;;
26951;SDS011;14507;52.418;13.398;2023-04-29T04:42:47;28.88;;;19.67;;
26951;SDS011;14507;52.418;13.398;2023-04-29T04:45:12;30.73;;;21.30;;
26951;SDS011;14507;52.418;13.398;2023-04-29T04:47:41;30.70;;;20.98;;
26951;SDS011;14507;52.418;13.398;2023-04-29T04:50:07;29.95;;;19.80;;
26951;SDS011;14507;52.418;13.398;2023-04-29T04:52:33;29.35;;;21.05;;
26951;SDS011;14507;52.418;13.398;2023-04-29T04:54:59;28.00;;;20.80;;
26951;SDS011;14507;52.418;13.398;2023-04-29T04:57:24;31.55;;;21.05;;
26951;SDS011;14507;52.418;13.398;2023-04-29T04:59:50;29.83;;;20.98;;
26951;SDS011;14507;52.418;13.398;2023-04-29T05:02:16;29.08;;;20.98;;
26951;SDS011;14507;52.418;13.398;2023-04-29T05:04:42;34.95;;;23.00;;
26951;SDS011;14507;52.418;13.398;2023-04-29T05:07:07;38.05;;;23.63;;
26951;SDS011;14507;52.418;13.398;2023-04-29T05:09:33;36.95;;;23.25;;
26951;SDS011;14507;52.418;13.398;2023-04-29T05:11:59;36.30;;;23.45;;
26951;SDS011;14507;52.418;13.398;2023-04-29T05:14:25;44.60;;;26.60;;
26951;SDS011;14507;52.418;13.398;2023-04-29T05:16:51;46.00;;;26.40;;
26951;SDS011;14507;52.418;13.398;2023-04-29T05:19:18;46.53;;;27.35;;
26951;SDS011;14507;52.418;13.398;2023-04-29T05:21:43;42.05;;;26.45;;
26951;SDS011;14507;52.418;13.398;2023-04-29T05:24:09;43.08;;;26.73;;
26951;SDS011;14507;52.418;13.398;2023-04-29T05:26:35;40.33;;;25.77;;
26951;SDS011;14507;52.418;13.398;2023-04-29T05:29:01;38.67;;;25.95;;
26951;SDS011;14507;52.418;13.398;2023-04-29T05:31:27;42.80;;;26.20;;
26951;SDS011;14507;52.418;13.398;2023-04-29T05:33:53;38.83;;;26.05;;
26951;SDS011;14507;52.418;13.398;2023-04-29T05:36:18;40.63;;;26.23;;
26951;SDS011;14507;52.418;13.398;2023-04-29T05:38:44;44.20;;;26.88;;
26951;SDS011;14507;52.418;13.398;2023-04-29T05:41:10;42.00;;;26.20;;
26951;SDS011;14507;52.418;13.398;2023-04-29T05:43:36;42.60;;;26.88;;
26951;SDS011;14507;52.418;13.398;2023-04-29T05:46:01;41.13;;;26.40;;
26951;SDS011;14507;52.418;13.398;2023-04-29T05:48:27;37.53;;;24.23;;
26951;SDS011;14507;52.418;13.398;2023-04-29T05:50:53;46.63;;;27.17;;
26951;SDS011;14507;52.418;13.398;2023-04-29T05:53:19;41.25;;;25.98;;
26951;SDS011;14507;52.418;13.398;2023-04-29T05:55:45;45.33;;;27.10;;
26951;SDS011;14507;52.418;13.398;2023-04-29T05:58:11;45.42;;;28.13;;
26951;SDS011;14507;52.418;13.398;2023-04-29T06:00:38;47.08;;;27.30;;
26951;SDS011;14507;52.418;13.398;2023-04-29T06:03:04;46.63;;;28.05;;
26951;SDS011;14507;52.418;13.398;2023-04-29T06:05:30;44.60;;;26.75;;
26951;SDS011;14507;52.418;13.398;2023-04-29T06:07:56;42.28;;;27.00;;
26951;SDS011;14507;52.418;13.398;2023-04-29T06:10:22;44.28;;;28.27;;
26951;SDS011;14507;52.418;13.398;2023-04-29T06:12:48;41.33;;;26.63;;
26951;SDS011;14507;52.418;13.398;2023-04-29T06:15:15;43.67;;;27.42;;
26951;SDS011;14507;52.418;13.398;2023-04-29T06:17:41;45.08;;;27.50;;
26951;SDS011;14507;52.418;13.398;2023-04-29T06:20:07;43.17;;;27.20;;
26951;SDS011;14507;52.418;13.398;2023-04-29T06:22:33;43.15;;;26.30;;
26951;SDS011;14507;52.418;13.398;2023-04-29T06:24:59;43.88;;;27.23;;
26951;SDS011;14507;52.418;13.398;2023-04-29T06:27:24;40.33;;;26.33;;
26951;SDS011;14507;52.418;13.398;2023-04-29T06:29:50;43.67;;;28.30;;
26951;SDS011;14507;52.418;13.398;2023-04-29T06:32:15;45.38;;;28.50;;
26951;SDS011;14507;52.418;13.398;2023-04-29T06:34:41;47.30;;;28.00;;
26951;SDS011;14507;52.418;13.398;2023-04-29T06:37:06;42.05;;;27.00;;
26951;SDS011;14507;52.418;13.398;2023-04-29T06:39:32;41.70;;;26.65;;
26951;SDS011;14507;52.418;13.398;2023-04-29T06:41:58;43.72;;;27.20;;
26951;SDS011;14507;52.418;13.398;2023-04-29T06:44:24;43.45;;;26.23;;
26951;SDS011;14507;52.418;13.398;2023-04-29T06:46:49;40.65;;;26.13;;
26951;SDS011;14507;52.418;13.398;2023-04-29T06:49:15;39.40;;;25.17;;
26951;SDS011;14507;52.418;13.398;2023-04-29T06:51:41;36.83;;;23.73;;
26951;SDS011;14507;52.418;13.398;2023-04-29T06:54:07;39.75;;;25.10;;
26951;SDS011;14507;52.418;13.398;2023-04-29T06:56:32;38.35;;;23.65;;
26951;SDS011;14507;52.418;13.398;2023-04-29T06:58:58;48.38;;;27.27;;
26951;SDS011;14507;52.418;13.398;2023-04-29T07:01:24;39.17;;;23.80;;
26951;SDS011;14507;52.418;13.398;2023-04-29T07:03:49;43.17;;;22.80;;
26951;SDS011;14507;52.418;13.398;2023-04-29T07:06:15;47.35;;;24.05;;
26951;SDS011;14507;52.418;13.398;2023-04-29T07:08:41;40.97;;;21.88;;
26951;SDS011;14507;52.418;13.398;2023-04-29T07:11:06;27.95;;;18.20;;
26951;SDS011;14507;52.418;13.398;2023-04-29T07:13:32;25.27;;;15.85;;
26951;SDS011;14507;52.418;13.398;2023-04-29T07:15:57;24.58;;;15.38;;
26951;SDS011;14507;52.418;13.398;2023-04-29T07:18:23;23.63;;;15.20;;
26951;SDS011;14507;52.418;13.398;2023-04-29T07:20:49;24.45;;;15.50;;
26951;SDS011;14507;52.418;13.398;2023-04-29T07:23:16;27.70;;;17.48;;
26951;SDS011;14507;52.418;13.398;2023-04-29T07:25:42;25.15;;;16.25;;
26951;SDS011;14507;52.418;13.398;2023-04-29T07:28:08;26.23;;;17.00;;
26951;SDS011;14507;52.418;13.398;2023-04-29T07:30:33;31.40;;;17.80;;
26951;SDS011;14507;52.418;13.398;2023-04-29T07:33:00;32.50;;;18.58;;
26951;SDS011;14507;52.418;13.398;2023-04-29T07:35:26;36.22;;;19.00;;
26951;SDS011;14507;52.418;13.398;2023-04-29T07:37:51;39.15;;;19.95;;
26951;SDS011;14507;52.418;13.398;2023-04-29T07:40:17;40.17;;;20.05;;
26951;SDS011;14507;52.418;13.398;2023-04-29T07:42:42;35.50;;;20.60;;
26951;SDS011;14507;52.418;13.398;2023-04-29T07:45:08;42.25;;;22.20;;
26951;SDS011;14507;52.418;13.398;2023-04-29T07:47:34;38.15;;;20.60;;
26951;SDS011;14507;52.418;13.398;2023-04-29T07:50:00;36.30;;;20.40;;
26951;SDS011;14507;52.418;13.398;2023-04-29T07:52:26;35.67;;;20.58;;
26951;SDS011;14507;52.418;13.398;2023-04-29T07:54:51;33.75;;;19.98;;
26951;SDS011;14507;52.418;13.398;2023-04-29T07:57:20;34.30;;;20.75;;
26951;SDS011;14507;52.418;13.398;2023-04-29T07:59:45;34.38;;;20.50;;
26951;SDS011;14507;52.418;13.398;2023-04-29T08:02:14;30.08;;;18.65;;
26951;SDS011;14507;52.418;13.398;2023-04-29T08:04:40;29.58;;;18.88;;
26951;SDS011;14507;52.418;13.398;2023-04-29T08:07:06;30.52;;;18.30;;
26951;SDS011;14507;52.418;13.398;2023-04-29T08:09:33;29.77;;;18.90;;
26951;SDS011;14507;52.418;13.398;2023-04-29T08:11:58;26.30;;;17.48;;
26951;SDS011;14507;52.418;13.398;2023-04-29T08:14:25;26.85;;;18.00;;
26951;SDS011;14507;52.418;13.398;2023-04-29T08:16:51;27.42;;;17.23;;
26951;SDS011;14507;52.418;13.398;2023-04-29T08:19:17;23.88;;;15.43;;
26951;SDS011;14507;52.418;13.398;2023-04-29T08:21:42;26.27;;;17.30;;
26951;SDS011;14507;52.418;13.398;2023-04-29T08:24:08;28.73;;;17.42;;
26951;SDS011;14507;52.418;13.398;2023-04-29T08:26:34;22.45;;;15.23;;
26951;SDS011;14507;52.418;13.398;2023-04-29T08:28:59;23.55;;;14.93;;
26951;SDS011;14507;52.418;13.398;2023-04-29T08:31:25;22.95;;;15.57;;
26951;SDS011;14507;52.418;13.398;2023-04-29T08:33:50;23.50;;;15.55;;
26951;SDS011;14507;52.418;13.398;2023-04-29T08:36:16;21.52;;;15.52;;
26951;SDS011;14507;52.418;13.398;2023-04-29T08:38:42;20.15;;;14.63;;
26951;SDS011;14507;52.418;13.398;2023-04-29T08:41:08;20.52;;;13.90;;
26951;SDS011;14507;52.418;13.398;2023-04-29T08:43:36;20.67;;;13.95;;
26951;SDS011;14507;52.418;13.398;2023-04-29T08:46:04;19.30;;;13.52;;
26951;SDS011;14507;52.418;13.398;2023-04-29T08:48:30;20.20;;;13.57;;
26951;SDS011;14507;52.418;13.398;2023-04-29T08:50:57;17.70;;;12.45;;
26951;SDS011;14507;52.418;13.398;2023-04-29T08:53:23;19.65;;;13.63;;
26951;SDS011;14507;52.418;13.398;2023-04-29T08:55:49;18.88;;;13.52;;
26951;SDS011;14507;52.418;13.398;2023-04-29T08:58:16;19.45;;;12.90;;
26951;SDS011;14507;52.418;13.398;2023-04-29T09:00:42;17.42;;;13.10;;
26951;SDS011;14507;52.418;13.398;2023-04-29T09:05:54;22.88;;;13.63;;
26951;SDS011;14507;52.418;13.398;2023-04-29T09:08:23;22.50;;;14.23;;
26951;SDS011;14507;52.418;13.398;2023-04-29T09:10:52;23.25;;;13.82;;
26951;SDS011;14507;52.418;13.398;2023-04-29T09:13:24;21.08;;;13.70;;
26951;SDS011;14507;52.418;13.398;2023-04-29T09:15:51;22.48;;;15.10;;
26951;SDS011;14507;52.418;13.398;2023-04-29T09:23:47;22.35;;;14.45;;
26951;SDS011;14507;52.418;13.398;2023-04-29T09:26:17;24.23;;;14.65;;
26951;SDS011;14507;52.418;13.398;2023-04-29T09:28:42;23.48;;;15.00;;
26951;SDS011;14507;52.418;13.398;2023-04-29T09:31:09;21.42;;;13.63;;
26951;SDS011;14507;52.418;13.398;2023-04-29T09:33:55;27.52;;;15.45;;
26951;SDS011;14507;52.418;13.398;2023-04-29T09:36:39;23.42;;;13.90;;
26951;SDS011;14507;52.418;13.398;2023-04-29T09:39:13;25.07;;;14.43;;
26951;SDS011;14507;52.418;13.398;2023-04-29T09:44:19;24.10;;;16.00;;
26951;SDS011;14507;52.418;13.398;2023-04-29T09:46:57;26.60;;;16.52;;
26951;SDS011;14507;52.418;13.398;2023-04-29T09:49:27;27.15;;;17.38;;
26951;SDS011;14507;52.418;13.398;2023-04-29T09:52:00;27.48;;;17.25;;
26951;SDS011;14507;52.418;13.398;2023-04-29T09:54:29;32.00;;;17.92;;
26951;SDS011;14507;52.418;13.398;2023-04-29T09:56:57;27.65;;;17.75;;
26951;SDS011;14507;52.418;13.398;2023-04-29T09:59:24;27.50;;;18.17;;
26951;SDS011;14507;52.418;13.398;2023-04-29T10:01:51;30.65;;;19.48;;
26951;SDS011;14507;52.418;13.398;2023-04-29T10:04:18;32.30;;;21.10;;
26951;SDS011;14507;52.418;13.398;2023-04-29T10:06:47;34.38;;;21.52;;
26951;SDS011;14507;52.418;13.398;2023-04-29T10:09:14;34.40;;;23.15;;
26951;SDS011;14507;52.418;13.398;2023-04-29T10:11:41;37.20;;;22.33;;
26951;SDS011;14507;52.418;13.398;2023-04-29T10:14:12;41.60;;;25.55;;
26951;SDS011;14507;52.418;13.398;2023-04-29T10:17:23;42.22;;;24.33;;
26951;SDS011;14507;52.418;13.398;2023-04-29T10:22:32;45.92;;;26.33;;
26951;SDS011;14507;52.418;13.398;2023-04-29T10:24:58;51.33;;;29.45;;
26951;SDS011;14507;52.418;13.398;2023-04-29T10:29:53;50.25;;;28.95;;
26951;SDS011;14507;52.418;13.398;2023-04-29T10:32:20;50.67;;;29.10;;
26951;SDS011;14507;52.418;13.398;2023-04-29T10:34:47;57.80;;;31.48;;
26951;SDS011;14507;52.418;13.398;2023-04-29T10:37:14;56.58;;;32.28;;
26951;SDS011;14507;52.418;13.398;2023-04-29T10:39:43;58.45;;;33.80;;
26951;SDS011;14507;52.418;13.398;2023-04-29T10:53:19;68.47;;;37.65;;
26951;SDS011;14507;52.418;13.398;2023-04-29T10:55:46;64.15;;;36.63;;
26951;SDS011;14507;52.418;13.398;2023-04-29T11:01:06;59.72;;;35.50;;
26951;SDS011;14507;52.418;13.398;2023-04-29T11:03:45;54.95;;;33.42;;
26951;SDS011;14507;52.418;13.398;2023-04-29T11:06:26;55.95;;;35.00;;
26951;SDS011;14507;52.418;13.398;2023-04-29T11:09:13;55.90;;;32.90;;
26951;SDS011;14507;52.418;13.398;2023-04-29T11:14:23;52.85;;;31.75;;
26951;SDS011;14507;52.418;13.398;2023-04-29T11:16:51;50.08;;;30.67;;
26951;SDS011;14507;52.418;13.398;2023-04-29T11:21:45;43.70;;;26.52;;
26951;SDS011;14507;52.418;13.398;2023-04-29T11:24:11;47.83;;;29.42;;
26951;SDS011;14507;52.418;13.398;2023-04-29T11:26:39;39.22;;;27.30;;
26951;SDS011;14507;52.418;13.398;2023-04-29T11:29:06;42.67;;;27.63;;
26951;SDS011;14507;52.418;13.398;2023-04-29T11:31:34;41.47;;;25.65;;
26951;SDS011;14507;52.418;13.398;2023-04-29T11:34:02;35.03;;;24.45;;
26951;SDS011;14507;52.418;13.398;2023-04-29T11:38:58;34.65;;;24.35;;
26951;SDS011;14507;52.418;13.398;2023-04-29T11:41:25;43.13;;;23.95;;
26951;SDS011;14507;52.418;13.398;2023-04-29T11:43:54;38.20;;;25.40;;
26951;SDS011;14507;52.418;13.398;2023-04-29T11:46:21;36.58;;;23.35;;
26951;SDS011;14507;52.418;13.398;2023-04-29T11:48:47;34.00;;;22.15;;
26951;SDS011;14507;52.418;13.398;2023-04-29T11:51:14;33.63;;;22.00;;
26951;SDS011;14507;52.418;13.398;2023-04-29T11:53:41;33.30;;;21.53;;
26951;SDS011;14507;52.418;13.398;2023-04-29T11:56:07;35.63;;;21.52;;
26951;SDS011;14507;52.418;13.398;2023-04-29T11:58:34;30.35;;;18.98;;
26951;SDS011;14507;52.418;13.398;2023-04-29T12:01:01;28.92;;;18.67;;
26951;SDS011;14507;52.418;13.398;2023-04-29T12:03:28;22.52;;;16.65;;
26951;SDS011;14507;52.418;13.398;2023-04-29T12:05:55;26.83;;;17.02;;
26951;SDS011;14507;52.418;13.398;2023-04-29T12:08:21;30.08;;;17.38;;
26951;SDS011;14507;52.418;13.398;2023-04-29T12:10:48;25.05;;;16.83;;
26951;SDS011;14507;52.418;13.398;2023-04-29T12:13:18;22.98;;;16.02;;
26951;SDS011;14507;52.418;13.398;2023-04-29T12:15:45;24.13;;;17.25;;
26951;SDS011;14507;52.418;13.398;2023-04-29T12:18:12;27.85;;;17.40;;
26951;SDS011;14507;52.418;13.398;2023-04-29T12:20:39;28.92;;;17.27;;
26951;SDS011;14507;52.418;13.398;2023-04-29T12:23:15;26.00;;;16.55;;
26951;SDS011;14507;52.418;13.398;2023-04-29T12:25:49;23.65;;;16.35;;
26951;SDS011;14507;52.418;13.398;2023-04-29T12:28:19;22.33;;;15.52;;
26951;SDS011;14507;52.418;13.398;2023-04-29T12:30:46;26.02;;;16.15;;
26951;SDS011;14507;52.418;13.398;2023-04-29T12:33:22;25.38;;;15.63;;
26951;SDS011;14507;52.418;13.398;2023-04-29T12:35:55;27.27;;;16.33;;
26951;SDS011;14507;52.418;13.398;2023-04-29T12:38:31;25.45;;;14.90;;
26951;SDS011;14507;52.418;13.398;2023-04-29T12:40:59;24.20;;;14.43;;
26951;SDS011;14507;52.418;13.398;2023-04-29T12:43:26;20.60;;;14.88;;
26951;SDS011;14507;52.418;13.398;2023-04-29T12:46:03;28.45;;;16.25;;
26951;SDS011;14507;52.418;13.398;2023-04-29T12:48:32;21.83;;;14.45;;
26951;SDS011;14507;52.418;13.398;2023-04-29T12:51:01;20.88;;;14.40;;
26951;SDS011;14507;52.418;13.398;2023-04-29T12:53:30;21.95;;;13.68;;
26951;SDS011;14507;52.418;13.398;2023-04-29T12:55:56;22.63;;;14.52;;
26951;SDS011;14507;52.418;13.398;2023-04-29T12:58:22;22.38;;;13.77;;
26951;SDS011;14507;52.418;13.398;2023-04-29T13:00:48;22.90;;;14.07;;
26951;SDS011;14507;52.418;13.398;2023-04-29T13:03:14;23.40;;;13.55;;
26951;SDS011;14507;52.418;13.398;2023-04-29T13:05:40;20.70;;;13.85;;
26951;SDS011;14507;52.418;13.398;2023-04-29T13:08:06;21.33;;;13.75;;
26951;SDS011;14507;52.418;13.398;2023-04-29T13:10:32;18.45;;;12.55;;
26951;SDS011;14507;52.418;13.398;2023-04-29T13:12:58;18.90;;;12.50;;
26951;SDS011;14507;52.418;13.398;2023-04-29T13:15:24;19.92;;;11.80;;
26951;SDS011;14507;52.418;13.398;2023-04-29T13:17:51;14.65;;;9.68;;
26951;SDS011;14507;52.418;13.398;2023-04-29T13:20:17;16.38;;;10.23;;
26951;SDS011;14507;52.418;13.398;2023-04-29T13:22:43;13.90;;;8.20;;
26951;SDS011;14507;52.418;13.398;2023-04-29T13:25:09;10.43;;;6.75;;
26951;SDS011;14507;52.418;13.398;2023-04-29T13:27:36;12.80;;;7.27;;
26951;SDS011;14507;52.418;13.398;2023-04-29T13:30:02;10.55;;;7.18;;
26951;SDS011;14507;52.418;13.398;2023-04-29T13:32:31;9.23;;;6.07;;
26951;SDS011;14507;52.418;13.398;2023-04-29T13:34:57;8.90;;;5.65;;
26951;SDS011;14507;52.418;13.398;2023-04-29T13:37:23;11.50;;;6.25;;
26951;SDS011;14507;52.418;13.398;2023-04-29T13:39:48;9.05;;;5.43;;
26951;SDS011;14507;52.418;13.398;2023-04-29T13:42:14;8.77;;;5.32;;
26951;SDS011;14507;52.418;13.398;2023-04-29T13:44:40;8.63;;;5.35;;
26951;SDS011;14507;52.418;13.398;2023-04-29T13:47:08;8.88;;;5.22;;
26951;SDS011;14507;52.418;13.398;2023-04-29T13:49:35;8.00;;;5.15;;
26951;SDS011;14507;52.418;13.398;2023-04-29T13:52:01;9.48;;;5.57;;
26951;SDS011;14507;52.418;13.398;2023-04-29T13:54:27;8.10;;;4.97;;
26951;SDS011;14507;52.418;13.398;2023-04-29T13:56:52;7.10;;;4.82;;
26951;SDS011;14507;52.418;13.398;2023-04-29T13:59:18;9.80;;;5.22;;
26951;SDS011;14507;52.418;13.398;2023-04-29T14:01:44;9.57;;;4.80;;
26951;SDS011;14507;52.418;13.398;2023-04-29T14:04:10;10.05;;;5.50;;
26951;SDS011;14507;52.418;13.398;2023-04-29T14:06:35;12.80;;;6.10;;
26951;SDS011;14507;52.418;13.398;2023-04-29T14:09:01;10.73;;;6.03;;
26951;SDS011;14507;52.418;13.398;2023-04-29T14:11:28;8.98;;;5.40;;
26951;SDS011;14507;52.418;13.398;2023-04-29T14:13:53;8.60;;;5.57;;
26951;SDS011;14507;52.418;13.398;2023-04-29T14:16:19;12.13;;;6.00;;
26951;SDS011;14507;52.418;13.398;2023-04-29T14:18:45;11.43;;;6.22;;
26951;SDS011;14507;52.418;13.398;2023-04-29T14:21:10;13.45;;;7.32;;
26951;SDS011;14507;52.418;13.398;2023-04-29T14:23:36;14.23;;;7.00;;
26951;SDS011;14507;52.418;13.398;2023-04-29T14:26:02;10.95;;;7.05;;
26951;SDS011;14507;52.418;13.398;2023-04-29T14:28:28;18.80;;;8.02;;
26951;SDS011;14507;52.418;13.398;2023-04-29T14:30:53;14.45;;;7.47;;
26951;SDS011;14507;52.418;13.398;2023-04-29T14:33:20;12.45;;;7.28;;
26951;SDS011;14507;52.418;13.398;2023-04-29T14:35:46;17.42;;;6.93;;
26951;SDS011;14507;52.418;13.398;2023-04-29T14:38:12;17.23;;;6.57;;
26951;SDS011;14507;52.418;13.398;2023-04-29T14:40:38;14.65;;;6.15;;
26951;SDS011;14507;52.418;13.398;2023-04-29T14:43:04;14.63;;;7.28;;
26951;SDS011;14507;52.418;13.398;2023-04-29T14:45:30;11.55;;;6.38;;
26951;SDS011;14507;52.418;13.398;2023-04-29T14:47:56;10.65;;;6.03;;
26951;SDS011;14507;52.418;13.398;2023-04-29T14:50:21;16.55;;;6.93;;
26951;SDS011;14507;52.418;13.398;2023-04-29T14:52:49;11.67;;;6.37;;
26951;SDS011;14507;52.418;13.398;2023-04-29T14:55:14;11.18;;;6.07;;
26951;SDS011;14507;52.418;13.398;2023-04-29T14:57:40;10.20;;;6.28;;
26951;SDS011;14507;52.418;13.398;2023-04-29T15:00:06;12.07;;;6.10;;
26951;SDS011;14507;52.418;13.398;2023-04-29T15:02:32;12.02;;;5.90;;
26951;SDS011;14507;52.418;13.398;2023-04-29T15:04:58;11.23;;;5.82;;
26951;SDS011;14507;52.418;13.398;2023-04-29T15:07:24;10.73;;;6.07;;
26951;SDS011;14507;52.418;13.398;2023-04-29T15:09:50;13.50;;;5.97;;